Time;durP1;ratioP1;P1;durP2;ratioP2;P2;SDS_P1;SDS_P2;PMS_P1;PMS_P2;Temp;Humidity;BMP_temperature;BMP_pressure;BME280_temperature;BME280_humidity;BME280_pressure;Samples;Min_cycle;Max_cycle;Signal;HPM_P1;HPM_P2
2022/08/30 00:03:22;;;;;;;;;;;27.30;93.70;;;;;;5104445;28;20218;-49
2022/08/30 00:05:48;;;;;;;;;;;27.20;93.70;;;;;;5104044;28;20122;-52
2022/08/30 00:08:14;;;;;;;;;;;27.20;93.70;;;;;;5104506;28;19913;-53
2022/08/30 00:10:44;;;;;;;;;;;27.20;93.70;;;;;;5104677;28;20176;-49
2022/08/30 00:13:11;;;;;;;;;;;27.20;93.80;;;;;;5101252;28;19912;-49
2022/08/30 00:15:38;;;;;;;;;;;27.20;93.80;;;;;;5107500;28;19923;-50
2022/08/30 00:18:05;;;;;;;;;;;27.20;93.70;;;;;;5109229;28;20119;-49
2022/08/30 00:20:32;;;;;;;;;;;27.20;93.60;;;;;;5111376;28;20144;-51
2022/08/30 00:22:58;;;;;;;;;;;27.10;93.60;;;;;;5111135;28;19945;-52
2022/08/30 00:25:24;;;;;;;;;;;27.10;93.60;;;;;;5111251;28;19908;-51
2022/08/30 00:27:50;;;;;;;;;;;27.10;93.60;;;;;;5110602;28;19916;-60
2022/08/30 00:30:17;;;;;;;;;;;27.10;93.80;;;;;;5109682;28;20019;-56
2022/08/30 00:32:43;;;;;;;;;;;27.10;94.60;;;;;;5110972;28;20211;-55
2022/08/30 00:35:11;;;;;;;;;;;27.10;94.60;;;;;;5110824;28;20210;-54
2022/08/30 00:37:38;;;;;;;;;;;27.00;94.60;;;;;;5110825;28;19904;-53
2022/08/30 00:40:04;;;;;;;;;;;27.10;94.70;;;;;;5109297;28;19908;-50
2022/08/30 00:42:31;;;;;;;;;;;27.10;94.70;;;;;;5109256;28;19909;-51
2022/08/30 00:45:00;;;;;;;;;;;27.10;94.50;;;;;;5111008;28;20207;-50
2022/08/30 00:47:26;;;;;;;;;;;27.00;94.60;;;;;;5110595;28;20164;-55
2022/08/30 00:49:53;;;;;;;;;;;27.00;94.60;;;;;;5109026;28;19912;-50
2022/08/30 00:52:21;;;;;;;;;;;27.00;94.40;;;;;;5104605;28;19908;-58
2022/08/30 00:54:49;;;;;;;;;;;27.00;94.10;;;;;;5110393;28;19916;-53
2022/08/30 00:57:15;;;;;;;;;;;27.10;94.00;;;;;;5108931;28;20252;-53
2022/08/30 00:59:46;;;;;;;;;;;27.10;93.90;;;;;;5099420;28;20188;-53
2022/08/30 01:02:13;;;;;;;;;;;27.10;93.80;;;;;;5090243;28;20097;-51
2022/08/30 01:04:41;;;;;;;;;;;27.10;93.80;;;;;;5090540;28;19921;-62
2022/08/30 01:07:08;;;;;;;;;;;27.10;93.80;;;;;;5090369;28;20193;-58
2022/08/30 01:09:34;;;;;;;;;;;27.10;93.70;;;;;;5090269;28;19924;-54
2022/08/30 01:12:01;;;;;;;;;;;27.10;93.70;;;;;;5089826;28;19916;-53
2022/08/30 01:14:27;;;;;;;;;;;27.10;93.60;;;;;;5090217;28;19920;-52
2022/08/30 01:16:55;;;;;;;;;;;27.10;93.60;;;;;;5090270;28;19912;-57
2022/08/30 01:19:34;;;;;;;;;;;27.10;93.60;;;;;;5110314;28;19925;-57
2022/08/30 01:22:18;;;;;;;;;;;27.10;93.60;;;;;;5110542;28;19950;-52
2022/08/30 01:24:46;;;;;;;;;;;27.10;93.50;;;;;;5110539;28;19912;-56
2022/08/30 01:27:16;;;;;;;;;;;27.10;93.50;;;;;;5106133;28;19985;-53
2022/08/30 01:29:43;;;;;;;;;;;27.00;93.40;;;;;;5105469;28;19920;-52
2022/08/30 01:32:20;;;;;;;;;;;27.00;93.40;;;;;;5101094;28;19971;-53
2022/08/30 01:34:47;;;;;;;;;;;27.00;93.60;;;;;;5100416;28;19912;-52
2022/08/30 01:37:16;;;;;;;;;;;27.00;93.60;;;;;;5086660;28;19905;-54
2022/08/30 01:39:44;;;;;;;;;;;27.00;93.50;;;;;;5086721;28;19920;-56
2022/08/30 01:42:11;;;;;;;;;;;27.00;93.50;;;;;;5086341;28;20227;-55
2022/08/30 01:44:38;;;;;;;;;;;27.00;93.50;;;;;;5068865;28;19909;-54
2022/08/30 01:47:04;;;;;;;;;;;27.00;93.50;;;;;;5086460;28;19908;-52
2022/08/30 01:49:31;;;;;;;;;;;27.00;93.50;;;;;;5088380;28;19923;-54
2022/08/30 01:51:57;;;;;;;;;;;27.00;93.50;;;;;;5099222;28;19958;-53
2022/08/30 01:54:23;;;;;;;;;;;27.00;93.50;;;;;;5098154;28;19914;-53
2022/08/30 01:56:49;;;;;;;;;;;26.90;93.40;;;;;;5092766;28;19908;-54
2022/08/30 01:59:15;;;;;;;;;;;27.00;93.50;;;;;;5091096;28;19936;-54
2022/08/30 02:01:41;;;;;;;;;;;27.00;93.50;;;;;;5086342;28;20242;-55
2022/08/30 02:04:08;;;;;;;;;;;26.90;93.40;;;;;;5086051;28;19995;-55
2022/08/30 02:06:37;;;;;;;;;;;26.90;93.40;;;;;;5086033;28;19905;-56
2022/08/30 02:09:03;;;;;;;;;;;26.90;93.40;;;;;;5085808;28;20107;-57
2022/08/30 02:11:29;;;;;;;;;;;26.90;93.30;;;;;;5086149;28;19979;-54
2022/08/30 02:13:57;;;;;;;;;;;26.90;93.30;;;;;;5085914;28;20246;-53
2022/08/30 02:16:23;;;;;;;;;;;26.90;93.30;;;;;;5099359;28;19912;-54
2022/08/30 02:18:50;;;;;;;;;;;26.90;93.30;;;;;;5090585;28;19904;-53
2022/08/30 02:21:17;;;;;;;;;;;26.90;93.30;;;;;;5085811;28;19927;-57
2022/08/30 02:23:43;;;;;;;;;;;26.90;93.30;;;;;;5067893;28;19915;-53
2022/08/30 02:26:10;;;;;;;;;;;26.90;93.30;;;;;;5085998;28;19951;-55
2022/08/30 02:28:37;;;;;;;;;;;26.90;93.30;;;;;;5085664;28;19912;-54
2022/08/30 02:31:03;;;;;;;;;;;26.90;93.30;;;;;;5086262;28;19912;-54
2022/08/30 02:33:30;;;;;;;;;;;26.90;93.30;;;;;;5085774;28;19904;-55
2022/08/30 02:35:56;;;;;;;;;;;26.90;93.40;;;;;;5085870;28;19920;-55
2022/08/30 02:38:24;;;;;;;;;;;26.90;93.40;;;;;;5093119;28;20143;-58
2022/08/30 02:40:50;;;;;;;;;;;26.90;93.50;;;;;;5094607;28;19912;-55
2022/08/30 02:43:18;;;;;;;;;;;26.90;93.50;;;;;;5083667;28;19912;-55
2022/08/30 02:45:44;;;;;;;;;;;26.90;93.50;;;;;;5084294;28;19935;-52
2022/08/30 02:48:10;;;;;;;;;;;26.90;93.50;;;;;;5083751;28;19919;-53
2022/08/30 02:50:45;;;;;;;;;;;26.90;93.60;;;;;;5084138;28;20204;-54
2022/08/30 02:53:12;;;;;;;;;;;26.80;93.60;;;;;;5083673;28;20197;-55
2022/08/30 02:55:38;;;;;;;;;;;26.80;93.70;;;;;;5083951;28;19909;-59
2022/08/30 02:58:05;;;;;;;;;;;26.80;93.70;;;;;;5083422;28;19939;-54
2022/08/30 03:00:31;;;;;;;;;;;26.80;93.60;;;;;;5085528;28;19987;-54
2022/08/30 03:02:57;;;;;;;;;;;26.80;93.70;;;;;;5085160;28;19919;-53
2022/08/30 03:05:24;;;;;;;;;;;26.80;93.70;;;;;;5085301;28;19912;-52
2022/08/30 03:07:51;;;;;;;;;;;26.80;93.70;;;;;;5087255;28;20208;-52
2022/08/30 03:10:17;;;;;;;;;;;26.80;93.80;;;;;;5094275;28;20188;-52
2022/08/30 03:12:43;;;;;;;;;;;26.70;93.80;;;;;;5084931;28;19909;-57
2022/08/30 03:15:12;;;;;;;;;;;26.70;93.80;;;;;;5084631;28;19959;-55
2022/08/30 03:17:38;;;;;;;;;;;26.70;93.80;;;;;;5084810;28;20150;-53
2022/08/30 03:20:06;;;;;;;;;;;26.70;93.80;;;;;;5085040;28;19983;-57
2022/08/30 03:22:32;;;;;;;;;;;26.70;93.80;;;;;;5085028;28;19984;-53
2022/08/30 03:25:00;;;;;;;;;;;26.70;93.90;;;;;;5084985;28;19948;-53
2022/08/30 03:27:27;;;;;;;;;;;26.60;93.90;;;;;;5084680;28;19904;-54
2022/08/30 03:29:53;;;;;;;;;;;26.70;93.90;;;;;;5084554;28;19916;-53
2022/08/30 03:32:19;;;;;;;;;;;26.60;93.90;;;;;;5084698;28;19911;-53
2022/08/30 03:34:45;;;;;;;;;;;26.60;93.90;;;;;;5084324;28;19913;-54
2022/08/30 03:37:12;;;;;;;;;;;26.60;93.90;;;;;;5084384;28;20197;-57
2022/08/30 03:39:39;;;;;;;;;;;26.60;93.90;;;;;;5094869;28;19918;-53
2022/08/30 03:42:05;;;;;;;;;;;26.60;93.90;;;;;;5085121;28;19928;-56
2022/08/30 03:44:32;;;;;;;;;;;26.60;93.80;;;;;;5084390;28;19908;-53
2022/08/30 03:46:58;;;;;;;;;;;26.60;93.90;;;;;;5087378;28;20271;-54
2022/08/30 03:49:24;;;;;;;;;;;26.60;93.90;;;;;;5093316;28;19917;-54
2022/08/30 03:51:50;;;;;;;;;;;26.60;93.90;;;;;;5083953;28;19942;-55
2022/08/30 03:54:16;;;;;;;;;;;26.60;93.80;;;;;;5084438;28;19912;-57
2022/08/30 03:56:43;;;;;;;;;;;26.60;93.80;;;;;;5084461;28;19911;-55
2022/08/30 03:59:09;;;;;;;;;;;26.60;93.80;;;;;;5084222;28;20260;-53
2022/08/30 04:01:35;;;;;;;;;;;26.60;93.80;;;;;;5084281;28;19923;-57
2022/08/30 04:04:01;;;;;;;;;;;26.60;93.80;;;;;;5084328;28;19904;-53
2022/08/30 04:06:27;;;;;;;;;;;26.60;93.80;;;;;;5084075;28;19908;-53
2022/08/30 04:08:54;;;;;;;;;;;26.60;93.80;;;;;;5086294;28;20136;-55
2022/08/30 04:11:20;;;;;;;;;;;26.60;93.80;;;;;;5093161;28;20105;-54
2022/08/30 04:13:48;;;;;;;;;;;26.60;93.80;;;;;;5083809;28;20255;-57
2022/08/30 04:16:14;;;;;;;;;;;26.50;93.80;;;;;;5084188;28;19928;-54
2022/08/30 04:18:40;;;;;;;;;;;26.50;93.80;;;;;;5089090;28;19915;-57
2022/08/30 04:21:06;;;;;;;;;;;26.50;93.80;;;;;;5094824;28;19983;-54
2022/08/30 04:23:32;;;;;;;;;;;26.50;93.80;;;;;;5093436;28;19908;-53
2022/08/30 04:25:59;;;;;;;;;;;26.50;93.80;;;;;;5084559;28;19928;-56
2022/08/30 04:28:25;;;;;;;;;;;26.50;93.80;;;;;;5083824;28;20191;-57
2022/08/30 04:30:51;;;;;;;;;;;26.50;93.90;;;;;;5084320;28;20185;-55
2022/08/30 04:33:18;;;;;;;;;;;26.50;93.90;;;;;;5083977;28;19904;-56
2022/08/30 04:35:45;;;;;;;;;;;26.50;93.90;;;;;;5084527;28;19913;-54
2022/08/30 04:38:12;;;;;;;;;;;26.50;93.90;;;;;;5083710;28;19916;-53
2022/08/30 04:40:42;;;;;;;;;;;26.40;93.80;;;;;;5084326;28;20239;-54
2022/08/30 04:43:08;;;;;;;;;;;26.40;93.90;;;;;;5083863;28;19908;-55
2022/08/30 04:45:36;;;;;;;;;;;26.40;93.90;;;;;;5066199;28;19920;-54
2022/08/30 04:48:02;;;;;;;;;;;26.40;93.90;;;;;;5083846;28;19909;-54
2022/08/30 04:50:29;;;;;;;;;;;26.40;93.90;;;;;;5084192;28;19920;-51
2022/08/30 04:52:56;;;;;;;;;;;26.40;93.90;;;;;;5083625;28;19904;-52
2022/08/30 04:55:24;;;;;;;;;;;26.40;93.90;;;;;;5084118;28;19935;-53
2022/08/30 04:57:51;;;;;;;;;;;26.40;93.90;;;;;;5083710;28;19911;-53
2022/08/30 05:00:19;;;;;;;;;;;26.40;93.90;;;;;;5083889;28;19920;-53
2022/08/30 05:02:45;;;;;;;;;;;26.40;93.80;;;;;;5085164;28;19908;-53
2022/08/30 05:07:56;;;;;;;;;;;26.40;93.90;;;;;;5087500;28;19923;-53
2022/08/30 05:10:22;;;;;;;;;;;26.40;94.00;;;;;;5087715;28;20237;-56
2022/08/30 05:12:49;;;;;;;;;;;26.30;94.00;;;;;;5087154;28;19981;-53
2022/08/30 05:15:15;;;;;;;;;;;26.30;94.00;;;;;;5087425;28;19978;-53
2022/08/30 05:17:41;;;;;;;;;;;26.30;94.00;;;;;;5087365;28;19911;-53
2022/08/30 05:20:08;;;;;;;;;;;26.30;94.00;;;;;;5087340;28;19917;-54
2022/08/30 05:22:35;;;;;;;;;;;26.30;93.90;;;;;;5087075;28;19905;-53
2022/08/30 05:25:02;;;;;;;;;;;26.30;94.00;;;;;;5087338;28;19912;-51
2022/08/30 05:27:28;;;;;;;;;;;26.30;94.00;;;;;;5086956;28;19975;-52
2022/08/30 05:29:54;;;;;;;;;;;26.30;94.00;;;;;;5087095;28;19920;-53
2022/08/30 05:32:20;;;;;;;;;;;26.30;94.00;;;;;;5087027;28;19912;-54
2022/08/30 05:34:47;;;;;;;;;;;26.30;94.00;;;;;;5087156;28;20096;-51
2022/08/30 05:37:13;;;;;;;;;;;26.30;94.10;;;;;;5086897;28;20192;-53
2022/08/30 05:39:39;;;;;;;;;;;26.30;94.10;;;;;;5087136;28;19915;-52
2022/08/30 05:42:05;;;;;;;;;;;26.30;94.10;;;;;;5086823;28;19909;-62
2022/08/30 05:44:31;;;;;;;;;;;26.30;94.10;;;;;;5086779;28;19913;-54
2022/08/30 05:46:57;;;;;;;;;;;26.20;94.10;;;;;;5087149;28;19905;-54
2022/08/30 05:49:23;;;;;;;;;;;26.20;94.10;;;;;;5086711;28;19916;-53
2022/08/30 05:51:49;;;;;;;;;;;26.20;94.10;;;;;;5086447;28;19928;-55
2022/08/30 05:54:16;;;;;;;;;;;26.20;94.30;;;;;;5086636;28;19947;-56
2022/08/30 05:56:44;;;;;;;;;;;26.20;94.10;;;;;;5086603;28;20179;-54
2022/08/30 05:59:10;;;;;;;;;;;26.20;94.10;;;;;;5086333;28;19921;-53
2022/08/30 06:01:38;;;;;;;;;;;26.20;94.20;;;;;;5086353;28;19908;-56
2022/08/30 06:04:05;;;;;;;;;;;26.20;94.10;;;;;;5086407;28;20133;-60
2022/08/30 06:06:33;;;;;;;;;;;26.10;94.10;;;;;;5086254;28;19945;-57
2022/08/30 06:08:59;;;;;;;;;;;26.20;94.10;;;;;;5086470;28;19909;-54
2022/08/30 06:11:25;;;;;;;;;;;26.20;94.10;;;;;;5086435;28;19909;-54
2022/08/30 06:13:52;;;;;;;;;;;26.20;94.10;;;;;;5085360;28;19916;-56
2022/08/30 06:16:23;;;;;;;;;;;26.20;94.10;;;;;;5085445;28;20214;-59
2022/08/30 06:18:49;;;;;;;;;;;26.20;94.30;;;;;;5086086;28;19946;-53
2022/08/30 06:21:16;;;;;;;;;;;26.20;94.10;;;;;;5085914;28;20130;-53
2022/08/30 06:23:43;;;;;;;;;;;26.10;94.10;;;;;;5085998;28;20109;-54
2022/08/30 06:26:09;;;;;;;;;;;26.10;94.20;;;;;;5086372;28;19908;-54
2022/08/30 06:28:36;;;;;;;;;;;26.10;94.20;;;;;;5085772;28;19954;-60
2022/08/30 06:31:06;;;;;;;;;;;26.10;94.20;;;;;;5085806;28;19909;-53
2022/08/30 06:33:32;;;;;;;;;;;26.10;94.20;;;;;;5085918;28;19912;-53
2022/08/30 06:36:05;;;;;;;;;;;26.10;94.20;;;;;;5088535;28;20085;-57
2022/08/30 06:38:31;;;;;;;;;;;26.10;94.30;;;;;;5099578;28;19987;-55
2022/08/30 06:40:57;;;;;;;;;;;26.10;94.30;;;;;;5097515;28;19944;-56
2022/08/30 06:43:24;;;;;;;;;;;26.10;94.30;;;;;;5099259;28;19959;-56
2022/08/30 06:45:50;;;;;;;;;;;26.10;94.30;;;;;;5095848;28;19908;-56
2022/08/30 06:48:16;;;;;;;;;;;26.10;94.40;;;;;;5105515;28;19953;-56
2022/08/30 06:50:43;;;;;;;;;;;26.10;94.30;;;;;;5105103;28;19998;-58
2022/08/30 06:53:09;;;;;;;;;;;26.10;94.40;;;;;;5102660;28;19943;-55
2022/08/30 06:55:36;;;;;;;;;;;26.10;94.40;;;;;;5094725;28;20223;-55
2022/08/30 06:58:02;;;;;;;;;;;26.10;94.40;;;;;;5094090;28;19919;-57
2022/08/30 07:00:29;;;;;;;;;;;26.10;94.50;;;;;;5089090;28;20192;-57
2022/08/30 07:02:56;;;;;;;;;;;26.10;94.50;;;;;;5102255;28;19926;-57
2022/08/30 07:05:23;;;;;;;;;;;26.10;94.50;;;;;;5099370;28;19908;-56
2022/08/30 07:07:52;;;;;;;;;;;26.10;94.50;;;;;;5103180;28;19920;-58
2022/08/30 07:10:18;;;;;;;;;;;26.10;94.50;;;;;;5105622;28;19920;-55
2022/08/30 07:12:44;;;;;;;;;;;26.10;94.50;;;;;;5104602;28;19971;-57
2022/08/30 07:15:10;;;;;;;;;;;26.00;94.50;;;;;;5104008;28;19916;-57
2022/08/30 07:20:29;;;;;;;;;;;26.00;94.50;;;;;;5081601;28;19908;-57
2022/08/30 07:22:55;;;;;;;;;;;26.00;94.50;;;;;;5105110;28;19979;-60
2022/08/30 07:25:21;;;;;;;;;;;26.00;94.50;;;;;;5104559;28;19931;-56
2022/08/30 07:27:50;;;;;;;;;;;26.00;94.50;;;;;;5105191;28;20217;-57
2022/08/30 07:30:17;;;;;;;;;;;26.00;94.50;;;;;;5105304;28;19946;-57
2022/08/30 07:32:43;;;;;;;;;;;26.00;94.50;;;;;;5099630;28;20101;-56
2022/08/30 07:35:09;;;;;;;;;;;26.00;94.50;;;;;;5093843;28;20074;-56
2022/08/30 07:37:36;;;;;;;;;;;26.00;94.50;;;;;;5084897;28;20100;-56
2022/08/30 07:40:03;;;;;;;;;;;26.00;94.60;;;;;;5084888;28;20216;-56
2022/08/30 07:42:29;;;;;;;;;;;26.00;94.70;;;;;;5084514;28;19970;-57
2022/08/30 07:44:55;;;;;;;;;;;26.00;94.80;;;;;;5092939;28;19974;-57
2022/08/30 07:47:21;;;;;;;;;;;26.00;94.80;;;;;;5087674;28;19912;-55
2022/08/30 07:49:47;;;;;;;;;;;26.00;94.80;;;;;;5084553;28;20135;-55
2022/08/30 07:52:13;;;;;;;;;;;26.00;94.80;;;;;;5084457;28;19948;-55
2022/08/30 07:54:39;;;;;;;;;;;26.00;94.80;;;;;;5089443;28;20171;-55
2022/08/30 07:57:06;;;;;;;;;;;25.90;94.80;;;;;;5104641;28;20349;-56
2022/08/30 07:59:32;;;;;;;;;;;25.90;94.80;;;;;;5104964;28;19915;-56
2022/08/30 08:01:58;;;;;;;;;;;25.90;94.90;;;;;;5104531;28;19952;-55
2022/08/30 08:04:24;;;;;;;;;;;25.90;94.90;;;;;;5104555;28;19916;-58
2022/08/30 08:06:50;;;;;;;;;;;25.90;95.00;;;;;;5104517;28;19908;-59
2022/08/30 08:09:17;;;;;;;;;;;25.90;95.00;;;;;;5104376;28;19912;-59
2022/08/30 08:11:43;;;;;;;;;;;25.90;95.00;;;;;;5104318;28;19919;-56
2022/08/30 08:14:09;;;;;;;;;;;25.90;95.10;;;;;;5104350;28;19958;-56
2022/08/30 08:16:36;;;;;;;;;;;25.90;95.10;;;;;;5104404;28;19918;-55
2022/08/30 08:19:07;;;;;;;;;;;25.90;95.10;;;;;;5104306;28;19980;-56
2022/08/30 08:21:33;;;;;;;;;;;25.90;95.10;;;;;;5104295;28;19950;-55
2022/08/30 08:23:59;;;;;;;;;;;25.90;95.20;;;;;;5104270;28;20139;-55
2022/08/30 08:26:26;;;;;;;;;;;25.90;95.10;;;;;;5104400;28;19912;-57
2022/08/30 08:28:52;;;;;;;;;;;25.90;95.10;;;;;;5104278;28;20209;-56
2022/08/30 08:31:20;;;;;;;;;;;25.90;95.10;;;;;;5104222;28;19916;-56
2022/08/30 08:33:46;;;;;;;;;;;25.90;95.10;;;;;;5104192;28;19951;-56
2022/08/30 08:36:12;;;;;;;;;;;25.90;95.10;;;;;;5104918;28;19911;-58
2022/08/30 08:38:39;;;;;;;;;;;25.80;95.10;;;;;;5108434;28;20127;-56
2022/08/30 08:41:12;;;;;;;;;;;25.90;95.10;;;;;;5108826;28;19987;-55
2022/08/30 08:43:39;;;;;;;;;;;25.90;95.10;;;;;;5108315;28;19912;-58
2022/08/30 08:46:05;;;;;;;;;;;25.90;95.00;;;;;;5108677;28;20160;-57
2022/08/30 08:48:44;;;;;;;;;;;25.90;95.00;;;;;;5107933;28;19923;-57
2022/08/30 08:54:05;;;;;;;;;;;25.80;94.80;;;;;;5107921;28;19973;-56
2022/08/30 08:56:31;;;;;;;;;;;25.80;94.80;;;;;;5108131;28;19916;-57
2022/08/30 08:58:58;;;;;;;;;;;25.80;94.90;;;;;;5107942;28;19915;-54
2022/08/30 09:01:26;;;;;;;;;;;25.80;95.00;;;;;;5107620;28;19913;-58
2022/08/30 09:03:53;;;;;;;;;;;25.80;95.00;;;;;;5107724;28;20244;-55
2022/08/30 09:06:27;;;;;;;;;;;25.80;95.10;;;;;;5107871;28;19912;-60
2022/08/30 09:08:54;;;;;;;;;;;25.80;95.10;;;;;;5107856;28;19912;-56
2022/08/30 09:11:25;;;;;;;;;;;25.90;95.20;;;;;;5107656;28;20097;-55
2022/08/30 09:13:53;;;;;;;;;;;25.80;95.10;;;;;;5107405;28;19924;-55
2022/08/30 09:16:45;;;;;;;;;;;25.80;95.10;;;;;;5107593;28;19940;-55
2022/08/30 09:19:26;;;;;;;;;;;25.80;95.10;;;;;;5103824;28;19950;-55
2022/08/30 09:22:10;;;;;;;;;;;25.80;95.20;;;;;;5107729;28;19927;-56
2022/08/30 09:24:38;;;;;;;;;;;25.80;95.20;;;;;;5107710;28;20191;-55
2022/08/30 09:27:20;;;;;;;;;;;25.80;95.30;;;;;;5107449;28;19912;-56
2022/08/30 09:29:58;;;;;;;;;;;25.80;95.30;;;;;;5107414;28;19934;-59
2022/08/30 09:32:32;;;;;;;;;;;25.80;95.30;;;;;;5107482;28;19912;-55
2022/08/30 09:34:58;;;;;;;;;;;25.70;95.30;;;;;;5107323;28;19908;-56
2022/08/30 09:37:29;;;;;;;;;;;25.70;95.30;;;;;;5107480;28;19912;-55
2022/08/30 09:39:56;;;;;;;;;;;25.70;95.30;;;;;;5106601;28;20173;-56
2022/08/30 09:42:24;;;;;;;;;;;25.70;95.30;;;;;;5106973;28;19912;-55
2022/08/30 09:44:51;;;;;;;;;;;25.70;95.30;;;;;;5107245;28;19931;-57
2022/08/30 09:47:24;;;;;;;;;;;25.70;95.30;;;;;;5106759;28;19912;-55
2022/08/30 09:50:01;;;;;;;;;;;25.70;95.30;;;;;;5106524;28;19961;-56
2022/08/30 09:52:36;;;;;;;;;;;25.70;95.30;;;;;;5106919;28;19918;-56
2022/08/30 09:55:02;;;;;;;;;;;25.70;95.30;;;;;;5107075;28;19908;-59
2022/08/30 09:57:38;;;;;;;;;;;25.70;95.40;;;;;;5106796;28;19946;-56
2022/08/30 10:00:06;;;;;;;;;;;25.70;95.40;;;;;;5106877;28;19908;-57
2022/08/30 10:02:33;;;;;;;;;;;25.70;95.40;;;;;;5106768;28;20105;-55
2022/08/30 10:05:05;;;;;;;;;;;25.70;95.40;;;;;;5107115;28;19908;-56
2022/08/30 10:07:33;;;;;;;;;;;25.70;95.40;;;;;;5106592;28;19930;-55
2022/08/30 10:10:04;;;;;;;;;;;25.70;95.40;;;;;;5106744;28;19912;-56
2022/08/30 10:12:42;;;;;;;;;;;25.70;95.40;;;;;;5106535;28;19979;-57
2022/08/30 10:15:08;;;;;;;;;;;25.70;95.40;;;;;;5106597;28;19965;-56
2022/08/30 10:17:41;;;;;;;;;;;25.70;95.40;;;;;;5106614;28;19912;-58
2022/08/30 10:20:10;;;;;;;;;;;25.60;95.40;;;;;;5106403;28;19908;-58
2022/08/30 10:22:38;;;;;;;;;;;25.70;95.40;;;;;;5106300;28;19954;-55
2022/08/30 10:25:25;;;;;;;;;;;25.70;95.40;;;;;;5106564;28;20203;-57
2022/08/30 10:28:03;;;;;;;;;;;25.60;95.40;;;;;;5105763;28;20105;-57
2022/08/30 10:30:32;;;;;;;;;;;25.60;95.50;;;;;;5106436;28;19912;-59
2022/08/30 10:33:07;;;;;;;;;;;25.60;95.50;;;;;;5106105;28;19912;-56
2022/08/30 10:35:36;;;;;;;;;;;25.60;95.50;;;;;;5106480;28;19908;-55
2022/08/30 10:38:05;;;;;;;;;;;25.60;95.50;;;;;;5105973;28;19912;-54
2022/08/30 10:43:33;;;;;;;;;;;25.60;95.50;;;;;;5105251;28;19950;-55
2022/08/30 10:46:01;;;;;;;;;;;25.60;95.60;;;;;;5106458;28;20099;-56
2022/08/30 10:48:46;;;;;;;;;;;25.60;95.50;;;;;;5105643;28;19962;-52
2022/08/30 10:51:22;;;;;;;;;;;25.60;95.60;;;;;;5105970;28;19987;-56
2022/08/30 10:54:01;;;;;;;;;;;25.50;95.60;;;;;;5105556;28;19980;-54
2022/08/30 10:56:28;;;;;;;;;;;25.50;95.50;;;;;;5104389;28;19919;-54
2022/08/30 10:58:57;;;;;;;;;;;25.50;95.60;;;;;;5105693;28;19939;-56
2022/08/30 11:01:41;;;;;;;;;;;25.60;95.60;;;;;;5105443;28;19912;-59
2022/08/30 11:04:07;;;;;;;;;;;25.50;95.60;;;;;;5105539;28;20025;-56
2022/08/30 11:06:42;;;;;;;;;;;25.50;95.70;;;;;;5105367;28;19918;-56
2022/08/30 11:09:16;;;;;;;;;;;25.50;95.70;;;;;;5104342;28;19954;-55
2022/08/30 11:12:01;;;;;;;;;;;25.50;95.70;;;;;;5105218;28;19912;-55
2022/08/30 11:14:27;;;;;;;;;;;25.50;95.70;;;;;;5105197;28;20196;-53
2022/08/30 11:16:55;;;;;;;;;;;25.60;95.80;;;;;;5105027;28;20104;-55
2022/08/30 11:19:25;;;;;;;;;;;25.60;95.80;;;;;;5105245;28;19971;-55
2022/08/30 11:21:52;;;;;;;;;;;25.60;95.80;;;;;;5105112;28;19912;-56
2022/08/30 11:24:20;;;;;;;;;;;25.60;95.80;;;;;;5104033;28;19915;-60
2022/08/30 11:26:55;;;;;;;;;;;25.60;95.80;;;;;;5105062;28;19912;-54
2022/08/30 11:29:41;;;;;;;;;;;25.60;95.80;;;;;;5105038;28;19916;-55
2022/08/30 11:32:16;;;;;;;;;;;25.60;95.80;;;;;;5105006;28;19913;-55
2022/08/30 11:34:48;;;;;;;;;;;25.60;95.80;;;;;;5104148;28;19915;-56
2022/08/30 11:37:37;;;;;;;;;;;25.60;95.80;;;;;;5104019;28;19951;-56
2022/08/30 11:40:05;;;;;;;;;;;25.60;95.80;;;;;;5105053;28;19965;-55
2022/08/30 11:42:31;;;;;;;;;;;25.70;95.80;;;;;;5105024;28;19915;-56
2022/08/30 11:45:16;;;;;;;;;;;25.70;95.80;;;;;;5105067;28;19908;-55
2022/08/30 11:47:45;;;;;;;;;;;25.70;95.80;;;;;;5104562;28;20006;-57
2022/08/30 11:50:16;;;;;;;;;;;25.70;95.80;;;;;;5104882;28;19974;-56
2022/08/30 11:52:58;;;;;;;;;;;25.70;95.80;;;;;;5103759;28;19908;-57
2022/08/30 11:55:36;;;;;;;;;;;25.70;95.80;;;;;;5105050;28;19908;-55
2022/08/30 11:58:08;;;;;;;;;;;25.70;95.80;;;;;;5104555;28;19993;-57
2022/08/30 12:00:39;;;;;;;;;;;25.70;95.80;;;;;;5103895;28;19912;-56
2022/08/30 12:03:05;;;;;;;;;;;25.70;95.80;;;;;;5104505;28;19908;-57
2022/08/30 12:05:38;;;;;;;;;;;25.70;95.80;;;;;;5104684;28;19940;-56
2022/08/30 12:08:06;;;;;;;;;;;25.70;95.70;;;;;;5104348;28;19908;-58
2022/08/30 12:10:37;;;;;;;;;;;25.70;95.60;;;;;;5104752;28;19908;-57
2022/08/30 12:13:04;;;;;;;;;;;25.80;95.50;;;;;;5103623;28;20193;-57
2022/08/30 12:15:48;;;;;;;;;;;25.80;95.50;;;;;;5104207;28;19955;-56
2022/08/30 12:18:29;;;;;;;;;;;25.80;95.40;;;;;;5104251;28;20147;-55
2022/08/30 12:20:57;;;;;;;;;;;25.80;95.40;;;;;;5104855;28;19972;-55
2022/08/30 12:23:26;;;;;;;;;;;25.80;95.30;;;;;;5104908;28;20200;-57
2022/08/30 12:26:10;;;;;;;;;;;25.80;95.30;;;;;;5104583;28;20248;-57
2022/08/30 12:28:36;;;;;;;;;;;25.80;95.20;;;;;;5104306;28;19916;-58
2022/08/30 12:31:09;;;;;;;;;;;25.90;95.30;;;;;;5104895;28;20251;-56
2022/08/30 12:33:40;;;;;;;;;;;25.90;95.20;;;;;;5103794;28;19987;-57
2022/08/30 12:36:07;;;;;;;;;;;25.90;95.00;;;;;;5101453;28;19939;-54
2022/08/30 12:38:33;;;;;;;;;;;25.90;95.00;;;;;;5104157;28;19913;-54
2022/08/30 12:41:01;;;;;;;;;;;25.90;94.90;;;;;;5104647;28;19908;-54
2022/08/30 12:43:29;;;;;;;;;;;26.00;94.80;;;;;;5103889;28;19912;-57
2022/08/30 12:45:57;;;;;;;;;;;25.90;95.00;;;;;;5103558;28;19930;-57
2022/08/30 12:48:24;;;;;;;;;;;25.90;94.60;;;;;;5104071;28;19916;-55
2022/08/30 12:50:57;;;;;;;;;;;26.00;94.60;;;;;;5104387;28;19915;-56
2022/08/30 12:53:27;;;;;;;;;;;26.00;94.60;;;;;;5104017;28;19912;-57
2022/08/30 12:55:58;;;;;;;;;;;26.00;94.50;;;;;;5104325;28;19950;-56
2022/08/30 12:58:33;;;;;;;;;;;26.00;94.60;;;;;;5103978;28;19920;-57
2022/08/30 13:01:13;;;;;;;;;;;26.00;94.50;;;;;;5104410;28;19915;-56
2022/08/30 13:03:40;;;;;;;;;;;26.00;94.40;;;;;;5104062;28;19912;-57
2022/08/30 13:06:07;;;;;;;;;;;26.00;94.40;;;;;;5104336;28;19908;-57
2022/08/30 13:08:47;;;;;;;;;;;26.00;94.40;;;;;;5103640;28;19916;-57
2022/08/30 13:11:19;;;;;;;;;;;26.00;94.40;;;;;;5104156;28;19954;-57
2022/08/30 13:13:47;;;;;;;;;;;26.10;94.30;;;;;;5103751;28;19971;-56
2022/08/30 13:16:19;;;;;;;;;;;26.10;94.40;;;;;;5103923;28;19957;-57
2022/08/30 13:18:46;;;;;;;;;;;26.10;94.50;;;;;;5103790;28;20211;-57
2022/08/30 13:21:20;;;;;;;;;;;26.10;94.60;;;;;;5103764;28;19913;-56
2022/08/30 13:23:47;;;;;;;;;;;26.10;94.70;;;;;;5105360;28;19908;-57
2022/08/30 13:26:14;;;;;;;;;;;26.10;94.80;;;;;;5107534;28;19912;-56
2022/08/30 13:28:43;;;;;;;;;;;26.10;94.90;;;;;;5107193;28;20097;-58
2022/08/30 13:31:09;;;;;;;;;;;26.10;95.00;;;;;;5107889;28;19908;-57
2022/08/30 13:33:35;;;;;;;;;;;26.10;95.00;;;;;;5107365;28;19951;-55
2022/08/30 13:36:01;;;;;;;;;;;26.10;95.00;;;;;;5107609;28;20185;-56
2022/08/30 13:38:27;;;;;;;;;;;26.10;95.10;;;;;;5107260;28;19915;-58
2022/08/30 13:40:53;;;;;;;;;;;26.10;95.00;;;;;;5107665;28;19908;-56
2022/08/30 13:43:20;;;;;;;;;;;26.10;95.00;;;;;;5107057;28;19947;-56
2022/08/30 13:45:46;;;;;;;;;;;26.20;95.20;;;;;;5107590;28;19908;-56
2022/08/30 13:48:13;;;;;;;;;;;26.10;95.20;;;;;;5104294;28;19912;-61
2022/08/30 13:50:39;;;;;;;;;;;26.10;95.20;;;;;;5107303;28;19936;-56
2022/08/30 13:53:07;;;;;;;;;;;26.20;95.20;;;;;;5106877;28;19979;-57
2022/08/30 13:55:34;;;;;;;;;;;26.20;95.30;;;;;;5107292;28;20234;-56
2022/08/30 13:58:02;;;;;;;;;;;26.20;95.30;;;;;;5106772;28;19912;-58
2022/08/30 14:00:28;;;;;;;;;;;26.20;95.30;;;;;;5106582;28;19927;-59
2022/08/30 14:02:54;;;;;;;;;;;26.20;95.30;;;;;;5106322;28;19934;-55
2022/08/30 14:05:25;;;;;;;;;;;26.20;95.30;;;;;;5106924;28;19908;-55
2022/08/30 14:07:51;;;;;;;;;;;26.30;95.40;;;;;;5106552;28;19919;-55
2022/08/30 14:10:18;;;;;;;;;;;26.30;95.60;;;;;;5106966;28;20092;-56
2022/08/30 14:12:44;;;;;;;;;;;26.30;95.40;;;;;;5106512;28;19918;-55
2022/08/30 14:15:11;;;;;;;;;;;26.30;95.60;;;;;;5106273;28;19924;-60
2022/08/30 14:17:43;;;;;;;;;;;26.30;95.50;;;;;;5106495;28;19912;-55
2022/08/30 14:20:09;;;;;;;;;;;26.30;95.50;;;;;;5106609;28;19908;-54
2022/08/30 14:22:35;;;;;;;;;;;26.30;95.40;;;;;;5106758;28;19912;-57
2022/08/30 14:25:02;;;;;;;;;;;26.30;95.40;;;;;;5106367;28;19908;-53
2022/08/30 14:27:28;;;;;;;;;;;26.40;95.60;;;;;;5099246;28;19918;-55
2022/08/30 14:29:54;;;;;;;;;;;26.40;95.50;;;;;;5106412;28;19950;-57
2022/08/30 14:32:20;;;;;;;;;;;26.40;95.40;;;;;;5106210;28;20220;-55
2022/08/30 14:34:46;;;;;;;;;;;26.40;95.20;;;;;;5105871;28;19912;-57
2022/08/30 14:37:12;;;;;;;;;;;26.40;95.20;;;;;;5106112;28;19912;-57